createdAt,value
2022-08-09T00:00:21.036Z,20.72
2022-08-09T00:02:49.383Z,20.68
2022-08-09T00:06:18.957Z,20.63
2022-08-09T00:08:31.400Z,20.63
2022-08-09T00:10:59.919Z,20.66
2022-08-09T00:13:28.364Z,20.66
2022-08-09T00:16:02.814Z,20.63
2022-08-09T00:18:34.708Z,20.59
2022-08-09T00:21:05.291Z,20.54
2022-08-09T00:23:57.681Z,20.49
2022-08-09T00:26:32.222Z,20.47
2022-08-09T00:29:02.181Z,20.49
2022-08-09T00:31:57.467Z,20.48
2022-08-09T00:34:19.141Z,20.46
2022-08-09T00:36:52.039Z,20.42
2022-08-09T00:40:13.055Z,20.38
2022-08-09T00:44:14.577Z,20.35
2022-08-09T00:44:57.138Z,20.38
2022-08-09T00:47:25.203Z,20.39
2022-08-09T00:49:54.788Z,20.39
2022-08-09T00:52:30.242Z,20.37
2022-08-09T00:55:00.295Z,20.34
2022-08-09T00:57:33.674Z,20.32
2022-08-09T01:00:20.469Z,20.35
2022-08-09T01:02:51.903Z,20.39
2022-08-09T01:05:53.619Z,20.40
2022-08-09T01:08:36.859Z,20.38
2022-08-09T01:11:20.601Z,20.36
2022-08-09T01:14:07.785Z,20.35
2022-08-09T01:16:47.308Z,20.40
2022-08-09T01:20:01.745Z,20.46
2022-08-09T01:23:12.354Z,20.44
2022-08-09T01:26:03.077Z,20.40
2022-08-09T01:28:30.293Z,20.36
2022-08-09T01:30:59.035Z,20.32
2022-08-09T01:33:30.119Z,20.33
2022-08-09T01:36:08.451Z,20.37
2022-08-09T01:38:44.265Z,20.38
2022-08-09T01:41:19.458Z,20.36
2022-08-09T01:43:56.679Z,20.34
2022-08-09T01:46:29.920Z,20.31
2022-08-09T01:49:10.662Z,20.35
2022-08-09T01:51:44.593Z,20.38
2022-08-09T01:54:25.552Z,20.39
2022-08-09T01:56:56.806Z,20.37
2022-08-09T01:59:24.477Z,20.36
2022-08-09T02:02:02.134Z,20.33
2022-08-09T02:04:31.985Z,20.36
2022-08-09T02:07:18.140Z,20.40
2022-08-09T02:10:29.806Z,20.39
2022-08-09T02:12:58.648Z,20.37
2022-08-09T02:15:27.010Z,20.34
2022-08-09T02:18:23.674Z,20.30
2022-08-09T02:21:08.638Z,20.34
2022-08-09T02:23:43.237Z,20.36
2022-08-09T02:26:25.281Z,20.34
2022-08-09T02:28:59.583Z,20.31
2022-08-09T02:31:36.446Z,20.27
2022-08-09T02:34:13.602Z,20.23
2022-08-09T02:36:56.863Z,20.24
2022-08-09T02:39:33.785Z,20.26
2022-08-09T02:42:08.657Z,20.25
2022-08-09T02:44:41.763Z,20.20
2022-08-09T02:47:10.550Z,20.13
2022-08-09T02:50:15.177Z,20.10
2022-08-09T02:52:50.004Z,20.07
2022-08-09T02:55:24.939Z,20.10
2022-08-09T02:58:36.040Z,20.13
2022-08-09T03:01:06.136Z,20.12
2022-08-09T03:03:59.573Z,20.09
2022-08-09T03:06:23.603Z,20.05
2022-08-09T03:08:52.680Z,20.02
2022-08-09T03:12:05.372Z,20.03
2022-08-09T03:14:18.206Z,20.07
2022-08-09T03:16:48.652Z,20.08
2022-08-09T03:19:52.836Z,20.06
2022-08-09T03:22:12.151Z,20.03
2022-08-09T03:24:52.587Z,19.98
2022-08-09T03:27:27.720Z,20.00
2022-08-09T03:30:05.327Z,20.03
2022-08-09T03:32:36.929Z,20.03
2022-08-09T03:35:24.156Z,20.00
2022-08-09T03:37:55.982Z,19.97
2022-08-09T03:40:25.652Z,19.94
2022-08-09T03:43:03.347Z,19.97
2022-08-09T03:46:04.342Z,19.99
2022-08-09T03:48:30.629Z,19.98
2022-08-09T03:50:58.695Z,19.96
2022-08-09T03:53:32.097Z,19.94
2022-08-09T03:56:07.534Z,19.92
2022-08-09T03:58:35.027Z,19.95
2022-08-09T04:01:02.242Z,19.99
2022-08-09T04:03:35.402Z,20.00
2022-08-09T04:06:16.138Z,19.98
2022-08-09T04:08:46.629Z,19.96
2022-08-09T04:11:14.157Z,19.92
2022-08-09T04:14:37.065Z,19.88
2022-08-09T04:16:31.322Z,19.90
2022-08-09T04:18:59.384Z,19.95
2022-08-09T04:21:27.157Z,19.97
2022-08-09T04:24:02.338Z,19.97
2022-08-09T04:26:35.112Z,19.97
2022-08-09T04:29:10.883Z,19.96
2022-08-09T04:31:47.296Z,20.02
2022-08-09T04:34:30.450Z,20.07
2022-08-09T04:37:02.514Z,20.10
2022-08-09T04:39:30.861Z,20.11
2022-08-09T04:41:59.634Z,20.12
2022-08-09T04:44:27.630Z,20.12
2022-08-09T04:46:58.475Z,20.18
2022-08-09T04:49:54.644Z,20.27
2022-08-09T04:52:27.776Z,20.32
2022-08-09T04:54:56.979Z,20.35
2022-08-09T04:57:25.235Z,20.40
2022-08-09T04:59:54.300Z,20.46
2022-08-09T05:02:23.131Z,20.53
2022-08-09T05:04:55.256Z,20.64
2022-08-09T05:07:27.764Z,20.77
2022-08-09T05:10:04.963Z,20.86
2022-08-09T05:12:33.063Z,20.93
2022-08-09T05:15:01.103Z,20.97
2022-08-09T05:18:55.135Z,21.01
2022-08-09T05:20:29.651Z,21.01
2022-08-09T05:23:54.163Z,20.99
2022-08-09T05:25:46.636Z,20.96
2022-08-09T05:28:19.221Z,20.93
2022-08-09T05:30:47.916Z,20.94
2022-08-09T05:33:26.472Z,20.96
2022-08-09T05:36:04.395Z,20.96
2022-08-09T05:38:34.468Z,20.95
2022-08-09T05:41:06.974Z,20.92
2022-08-09T05:43:45.134Z,20.88
2022-08-09T05:46:16.498Z,20.83
2022-08-09T05:48:44.339Z,20.76
2022-08-09T05:51:30.119Z,20.70
2022-08-09T05:54:06.492Z,20.71
2022-08-09T05:56:33.739Z,20.72
2022-08-09T05:59:01.006Z,20.71
2022-08-09T06:01:34.185Z,20.69
2022-08-09T06:04:12.273Z,20.65
2022-08-09T06:06:45.163Z,20.62
2022-08-09T06:09:40.533Z,20.59
2022-08-09T06:12:05.830Z,20.56
2022-08-09T06:14:35.293Z,20.59
2022-08-09T06:17:09.462Z,20.61
2022-08-09T06:19:37.505Z,20.60
2022-08-09T06:22:15.399Z,20.57
2022-08-09T06:24:45.642Z,20.52
2022-08-09T06:27:16.416Z,20.48
2022-08-09T06:29:48.189Z,20.48
2022-08-09T06:32:53.173Z,20.51
2022-08-09T06:35:15.988Z,20.50
2022-08-09T06:37:52.913Z,20.46
2022-08-09T06:40:30.800Z,20.40
2022-08-09T06:43:01.495Z,20.35
2022-08-09T06:46:06.746Z,20.31
2022-08-09T06:48:26.167Z,20.25
2022-08-09T06:50:59.709Z,20.14
2022-08-09T06:53:27.156Z,20.03
2022-08-09T06:56:03.865Z,19.91
2022-08-09T07:00:46.830Z,19.80
2022-08-09T07:01:18.945Z,19.74
2022-08-09T07:03:52.381Z,19.71
2022-08-09T07:06:21.201Z,19.64
2022-08-09T07:08:49.541Z,19.55
2022-08-09T07:11:25.199Z,19.47
2022-08-09T07:14:05.374Z,19.39
2022-08-09T07:16:39.085Z,19.38
2022-08-09T07:19:15.186Z,19.39
2022-08-09T07:21:55.727Z,19.36
2022-08-09T07:24:31.786Z,19.31
2022-08-09T07:27:11.146Z,19.24
2022-08-09T07:29:58.550Z,19.19
2022-08-09T07:32:33.637Z,19.18
2022-08-09T07:35:10.276Z,19.18
2022-08-09T07:37:44.153Z,19.15
2022-08-09T07:40:18.610Z,19.11
2022-08-09T07:42:55.673Z,19.05
2022-08-09T07:45:37.663Z,19.03
2022-08-09T07:48:06.202Z,19.05
2022-08-09T07:50:36.372Z,19.02
2022-08-09T07:53:05.299Z,18.97
2022-08-09T07:55:41.247Z,18.93
2022-08-09T07:58:59.545Z,18.95
2022-08-09T08:01:33.067Z,18.92
2022-08-09T08:04:02.602Z,18.87
2022-08-09T08:06:32.141Z,18.83
2022-08-09T08:09:04.937Z,18.83
2022-08-09T08:12:10.167Z,18.87
2022-08-09T08:14:24.193Z,18.87
2022-08-09T08:17:00.671Z,18.87
2022-08-09T08:19:35.370Z,18.87
2022-08-09T08:22:03.295Z,18.91
2022-08-09T08:24:35.223Z,18.95
2022-08-09T08:27:16.826Z,18.97
2022-08-09T08:29:48.697Z,18.97
2022-08-09T08:32:24.251Z,18.98
2022-08-09T08:34:59.289Z,19.04
2022-08-09T08:37:41.605Z,19.11
2022-08-09T08:40:15.075Z,19.13
2022-08-09T08:42:43.652Z,19.11
2022-08-09T08:45:14.555Z,19.08
2022-08-09T08:47:45.153Z,19.13
2022-08-09T08:50:18.215Z,19.19
2022-08-09T08:52:59.056Z,19.24
2022-08-09T08:55:28.116Z,19.26
2022-08-09T08:57:58.502Z,19.29
2022-08-09T09:00:30.479Z,19.38
2022-08-09T09:03:12.040Z,19.43
2022-08-09T09:05:59.855Z,19.45
2022-08-09T09:08:40.410Z,19.44
2022-08-09T09:11:08.635Z,19.41
2022-08-09T09:13:57.063Z,19.43
2022-08-09T09:16:35.839Z,19.49
2022-08-09T09:22:07.635Z,19.53
2022-08-09T09:26:01.063Z,19.52
2022-08-09T09:28:05.188Z,19.56
2022-08-09T09:30:41.347Z,19.60
2022-08-09T09:33:16.783Z,19.60
2022-08-09T09:36:02.243Z,19.61
2022-08-09T09:38:43.969Z,19.61
2022-08-09T09:41:25.006Z,19.63
2022-08-09T09:44:10.707Z,19.66
2022-08-09T09:46:46.209Z,19.66
2022-08-09T09:49:31.974Z,19.61
2022-08-09T09:52:16.477Z,19.57
2022-08-09T09:55:27.686Z,19.60
2022-08-09T09:58:19.340Z,19.63
2022-08-09T10:00:52.633Z,19.61
2022-08-09T10:03:57.016Z,19.57
2022-08-09T10:06:28.078Z,19.51
2022-08-09T10:09:02.990Z,19.51
2022-08-09T10:11:59.488Z,19.53
2022-08-09T10:14:33.363Z,19.52
2022-08-09T10:17:27.661Z,19.49
2022-08-09T10:20:00.240Z,19.46
2022-08-09T10:22:33.339Z,19.49
2022-08-09T10:25:12.046Z,19.50
2022-08-09T10:27:57.272Z,19.47
2022-08-09T10:34:08.256Z,19.40
2022-08-09T10:36:05.433Z,19.41
2022-08-09T10:38:56.173Z,19.43
2022-08-09T10:41:24.701Z,19.42
2022-08-09T10:43:59.563Z,19.39
2022-08-09T10:46:55.649Z,19.34
2022-08-09T10:49:51.250Z,19.37
2022-08-09T10:52:20.592Z,19.40
2022-08-09T10:54:53.293Z,19.39
2022-08-09T10:57:20.838Z,19.38
2022-08-09T10:59:58.185Z,19.38
2022-08-09T11:03:14.173Z,19.42
2022-08-09T11:05:30.262Z,19.47
2022-08-09T11:08:35.247Z,19.49
2022-08-09T11:11:11.501Z,19.47
2022-08-09T11:13:49.806Z,19.46
2022-08-09T11:16:33.549Z,19.50
2022-08-09T11:19:09.863Z,19.53
2022-08-09T11:21:55.256Z,19.53
2022-08-09T11:24:59.390Z,19.52
2022-08-09T11:28:05.076Z,19.52
2022-08-09T11:30:33.705Z,19.59
2022-08-09T11:33:21.002Z,19.66
2022-08-09T11:35:57.416Z,19.68
2022-08-09T11:38:32.472Z,19.67
2022-08-09T11:41:05.641Z,19.65
2022-08-09T11:43:37.485Z,19.68
2022-08-09T11:46:06.503Z,19.72
2022-08-09T11:48:46.139Z,19.73
2022-08-09T11:52:53.762Z,19.71
2022-08-09T11:54:27.576Z,19.66
2022-08-09T11:57:47.524Z,19.65
2022-08-09T12:00:27.594Z,19.65
2022-08-09T12:02:56.890Z,19.63
2022-08-09T12:05:39.506Z,19.60
2022-08-09T12:08:12.428Z,19.57
2022-08-09T12:10:48.990Z,19.56
2022-08-09T12:14:09.439Z,19.58
2022-08-09T12:16:40.415Z,19.56
2022-08-09T12:19:09.993Z,19.52
2022-08-09T12:21:50.358Z,19.48
2022-08-09T12:24:26.205Z,19.51
2022-08-09T12:29:00.100Z,19.55
2022-08-09T12:30:00.131Z,19.58
2022-08-09T12:32:41.696Z,19.57
2022-08-09T12:35:16.982Z,19.57
2022-08-09T12:37:49.993Z,19.62
2022-08-09T12:40:20.819Z,19.68
2022-08-09T12:42:50.242Z,19.70
2022-08-09T12:45:34.673Z,19.72
2022-08-09T12:48:20.549Z,19.76
2022-08-09T12:50:58.083Z,19.85
2022-08-09T12:53:38.662Z,19.93
2022-08-09T12:56:39.451Z,19.97
2022-08-09T12:59:11.887Z,19.98
2022-08-09T13:01:47.002Z,19.97
2022-08-09T13:04:37.071Z,19.99
2022-08-09T13:07:19.968Z,20.02
2022-08-09T13:10:03.677Z,20.03
2022-08-09T13:12:32.367Z,20.01
2022-08-09T13:15:07.547Z,19.99
2022-08-09T13:18:03.480Z,20.00
2022-08-09T13:21:04.046Z,20.00
2022-08-09T13:24:16.136Z,19.97
2022-08-09T13:26:37.462Z,19.92
2022-08-09T13:29:42.100Z,19.89
2022-08-09T13:32:16.285Z,19.94
2022-08-09T13:34:47.216Z,20.03
2022-08-09T13:37:50.960Z,20.08
2022-08-09T13:41:50.969Z,20.12
2022-08-09T13:42:54.468Z,20.12
2022-08-09T13:45:21.842Z,20.13
2022-08-09T13:47:59.950Z,20.17
2022-08-09T13:50:30.516Z,20.19
2022-08-09T13:52:59.155Z,20.17
2022-08-09T13:55:28.937Z,20.12
2022-08-09T13:57:59.581Z,20.10
2022-08-09T14:00:28.692Z,20.11
2022-08-09T14:03:03.190Z,20.08
2022-08-09T14:05:56.563Z,20.01
2022-08-09T14:08:30.719Z,19.92
2022-08-09T14:11:00.470Z,19.90
2022-08-09T14:14:22.167Z,19.90
2022-08-09T14:16:17.886Z,19.87
2022-08-09T14:18:49.363Z,19.81
2022-08-09T14:21:20.718Z,19.74
2022-08-09T14:23:56.596Z,19.72
2022-08-09T14:26:32.865Z,19.70
2022-08-09T14:29:03.126Z,19.66
2022-08-09T14:31:36.353Z,19.61
2022-08-09T14:34:31.423Z,19.55
2022-08-09T14:37:07.516Z,19.55
2022-08-09T14:39:47.972Z,19.57
2022-08-09T14:42:30.060Z,19.57
2022-08-09T14:46:57.427Z,19.53
2022-08-09T14:48:05.389Z,19.48
2022-08-09T14:50:34.495Z,19.49
2022-08-09T14:53:11.468Z,19.52
2022-08-09T14:55:41.972Z,19.50
2022-08-09T14:58:10.256Z,19.45
2022-08-09T15:00:39.887Z,19.39
2022-08-09T15:03:10.557Z,19.38
2022-08-09T15:05:38.348Z,19.35
2022-08-09T15:08:06.212Z,19.32
2022-08-09T15:10:38.115Z,19.25
2022-08-09T15:13:08.779Z,19.20
2022-08-09T15:15:39.320Z,19.17
2022-08-09T15:18:08.306Z,19.17
2022-08-09T15:21:55.464Z,19.15
2022-08-09T15:24:00.602Z,19.09
2022-08-09T15:26:18.382Z,19.01
2022-08-09T15:28:54.694Z,18.99
2022-08-09T15:31:22.447Z,18.98
2022-08-09T15:34:18.281Z,18.93
2022-08-09T15:36:55.362Z,18.85
2022-08-09T15:39:34.661Z,18.77
2022-08-09T15:42:03.152Z,18.74
2022-08-09T15:44:32.606Z,18.73
2022-08-09T15:47:01.030Z,18.69
2022-08-09T15:49:28.654Z,18.64
2022-08-09T15:52:05.279Z,18.59
2022-08-09T15:54:44.769Z,18.60
2022-08-09T15:57:19.071Z,18.62
2022-08-09T16:00:14.019Z,18.59
2022-08-09T16:02:53.792Z,18.54
2022-08-09T16:05:23.316Z,18.49
2022-08-09T16:07:51.166Z,18.49
2022-08-09T16:10:54.997Z,18.49
2022-08-09T16:13:20.974Z,18.47
2022-08-09T16:16:11.778Z,18.41
2022-08-09T16:18:45.590Z,18.36
2022-08-09T16:21:16.979Z,18.36
2022-08-09T16:23:50.908Z,18.38
2022-08-09T16:26:33.929Z,18.36
2022-08-09T16:29:13.644Z,18.34
2022-08-09T16:32:17.893Z,18.32
2022-08-09T16:34:55.495Z,18.34
2022-08-09T16:37:17.876Z,18.39
2022-08-09T16:39:54.515Z,18.39
2022-08-09T16:42:33.073Z,18.36
2022-08-09T16:45:00.335Z,18.33
2022-08-09T16:48:41.280Z,18.33
2022-08-09T16:50:29.177Z,18.36
2022-08-09T16:52:58.255Z,18.35
2022-08-09T16:55:25.473Z,18.31
2022-08-09T16:58:08.799Z,18.26
2022-08-09T17:00:38.713Z,18.26
2022-08-09T17:03:21.787Z,18.28
2022-08-09T17:06:09.328Z,18.26
2022-08-09T17:08:59.977Z,18.20
2022-08-09T17:11:32.899Z,18.13
2022-08-09T17:14:25.511Z,18.11
2022-08-09T17:17:02.161Z,18.12
2022-08-09T17:20:05.008Z,18.08
2022-08-09T17:22:30.699Z,18.03
2022-08-09T17:25:10.227Z,17.98
2022-08-09T17:27:49.618Z,17.97
2022-08-09T17:30:25.465Z,17.98
2022-08-09T17:33:00.650Z,17.95
2022-08-09T17:35:34.354Z,17.89
2022-08-09T17:38:14.411Z,17.83
2022-08-09T17:40:52.090Z,17.84
2022-08-09T17:43:34.338Z,17.84
2022-08-09T17:46:08.974Z,17.82
2022-08-09T17:48:51.514Z,17.76
2022-08-09T17:51:22.664Z,17.71
2022-08-09T17:53:55.187Z,17.70
2022-08-09T17:56:35.416Z,17.71
2022-08-09T17:59:09.654Z,17.69
2022-08-09T18:02:06.680Z,17.63
2022-08-09T18:04:33.409Z,17.58
2022-08-09T18:07:23.665Z,17.57
2022-08-09T18:10:04.958Z,17.59
2022-08-09T18:13:39.934Z,17.60
2022-08-09T18:15:50.336Z,17.59
2022-08-09T18:18:25.324Z,17.57
2022-08-09T18:21:10.407Z,17.62
2022-08-09T18:24:10.222Z,17.67
2022-08-09T18:26:31.318Z,17.68
2022-08-09T18:30:38.595Z,17.65
2022-08-09T18:31:55.370Z,17.62
2022-08-09T18:34:28.324Z,17.64
2022-08-09T18:36:57.704Z,17.67
2022-08-09T18:39:32.045Z,17.67
2022-08-09T18:42:08.764Z,17.64
2022-08-09T18:44:38.614Z,17.60
2022-08-09T18:47:15.908Z,17.61
2022-08-09T18:49:49.500Z,17.64
2022-08-09T18:52:24.775Z,17.64
2022-08-09T18:54:54.983Z,17.60
2022-08-09T18:57:24.036Z,17.58
2022-08-09T19:00:20.548Z,17.59
2022-08-09T19:03:00.156Z,17.61
2022-08-09T19:06:02.260Z,17.59
2022-08-09T19:08:21.374Z,17.55
2022-08-09T19:10:57.826Z,17.48
2022-08-09T19:13:49.868Z,17.41
2022-08-09T19:16:21.141Z,17.41
2022-08-09T19:18:57.118Z,17.44
2022-08-09T19:21:47.897Z,17.45
2022-08-09T19:24:33.433Z,17.43
2022-08-09T19:27:16.698Z,17.40
2022-08-09T19:30:22.173Z,17.42
2022-08-09T19:32:37.396Z,17.46
2022-08-09T19:35:12.307Z,17.45
2022-08-09T19:37:56.079Z,17.42
2022-08-09T19:40:34.472Z,17.38
2022-08-09T19:43:10.075Z,17.39
2022-08-09T19:45:45.011Z,17.41
2022-08-09T19:48:17.947Z,17.41
2022-08-09T19:51:07.056Z,17.38
2022-08-09T19:53:49.578Z,17.34
2022-08-09T19:56:29.081Z,17.35
2022-08-09T19:59:27.798Z,17.37
2022-08-09T20:02:07.495Z,17.36
2022-08-09T20:04:55.109Z,17.33
2022-08-09T20:07:23.905Z,17.29
2022-08-09T20:09:52.868Z,17.29
2022-08-09T20:12:29.937Z,17.30
2022-08-09T20:16:50.330Z,17.27
2022-08-09T20:19:47.459Z,17.19
2022-08-09T20:25:01.474Z,17.21
2022-08-09T20:27:32.944Z,17.18
2022-08-09T20:30:01.528Z,17.13
2022-08-09T20:32:34.010Z,17.10
2022-08-09T20:35:02.683Z,17.11
2022-08-09T20:38:18.681Z,17.14
2022-08-09T20:40:26.949Z,17.13
2022-08-09T20:43:12.199Z,17.09
2022-08-09T20:46:00.317Z,17.03
2022-08-09T20:48:33.074Z,17.04
2022-08-09T20:51:06.169Z,17.05
2022-08-09T20:53:36.798Z,17.02
2022-08-09T20:56:20.095Z,16.96
2022-08-09T20:58:58.199Z,16.89
2022-08-09T21:01:34.540Z,16.89
2022-08-09T21:05:54.279Z,16.90
2022-08-09T21:07:12.254Z,16.89
2022-08-09T21:09:56.550Z,16.85
2022-08-09T21:15:17.692Z,16.82
2022-08-09T21:18:21.164Z,16.87
2022-08-09T21:20:38.593Z,16.89
2022-08-09T21:23:10.841Z,16.87
2022-08-09T21:25:53.957Z,16.84
2022-08-09T21:28:33.573Z,16.87
2022-08-09T21:31:16.269Z,16.90
2022-08-09T21:33:51.320Z,16.90
2022-08-09T21:36:21.155Z,16.86
2022-08-09T21:38:57.481Z,16.83
2022-08-09T21:42:03.855Z,16.86
2022-08-09T21:44:34.343Z,16.91
2022-08-09T21:47:08.718Z,16.88
2022-08-09T21:49:40.032Z,16.82
2022-08-09T21:52:14.774Z,16.77
2022-08-09T21:54:50.798Z,16.79
2022-08-09T21:57:38.943Z,16.82
2022-08-09T22:00:18.187Z,16.80
2022-08-09T22:02:58.776Z,16.77
2022-08-09T22:05:35.852Z,16.75
2022-08-09T22:08:06.424Z,16.78
2022-08-09T22:10:34.176Z,16.81
2022-08-09T22:13:07.235Z,16.80
2022-08-09T22:15:38.822Z,16.76
2022-08-09T22:18:11.917Z,16.72
2022-08-09T22:20:40.153Z,16.74
2022-08-09T22:23:13.319Z,16.76
2022-08-09T22:26:08.248Z,16.76
2022-08-09T22:28:32.957Z,16.74
2022-08-09T22:31:01.511Z,16.72
2022-08-09T22:33:42.470Z,16.73
2022-08-09T22:36:19.417Z,16.75
2022-08-09T22:38:47.638Z,16.75
2022-08-09T22:41:15.509Z,16.72
2022-08-09T22:44:01.923Z,16.68
2022-08-09T22:48:16.722Z,16.70
2022-08-09T22:49:19.502Z,16.74
2022-08-09T22:51:49.669Z,16.73
2022-08-09T22:54:26.045Z,16.69
2022-08-09T22:56:56.989Z,16.66
2022-08-09T22:59:55.400Z,16.67
2022-08-09T23:02:15.723Z,16.71
2022-08-09T23:04:53.736Z,16.71
2022-08-09T23:08:23.355Z,16.67
2022-08-09T23:10:29.933Z,16.63
2022-08-09T23:12:57.729Z,16.64
2022-08-09T23:15:25.156Z,16.66
2022-08-09T23:17:52.426Z,16.66
2022-08-09T23:20:19.763Z,16.64
2022-08-09T23:22:47.015Z,16.62
2022-08-09T23:25:16.726Z,16.63
2022-08-09T23:28:14.082Z,16.67
2022-08-09T23:30:31.504Z,16.67
2022-08-09T23:32:58.752Z,16.65
2022-08-09T23:35:26.212Z,16.62
2022-08-09T23:37:53.474Z,16.63
2022-08-09T23:40:23.379Z,16.66
2022-08-09T23:42:53.495Z,16.66
2022-08-09T23:45:37.206Z,16.63
2022-08-09T23:48:08.947Z,16.59
2022-08-09T23:50:36.897Z,16.61
2022-08-09T23:53:04.342Z,16.66
2022-08-09T23:55:36.105Z,16.67
2022-08-09T23:58:10.747Z,16.65
